sensor_id;sensor_type;location;lat;lon;timestamp;temperature;humidity
46720;DHT22;32452;51.382;-0.002;2022-08-18T00:02:34;20.30;95.80
46720;DHT22;32452;51.382;-0.002;2022-08-18T00:05:27;20.30;95.80
46720;DHT22;32452;51.382;-0.002;2022-08-18T00:08:15;20.30;96.20
46720;DHT22;32452;51.382;-0.002;2022-08-18T00:11:01;20.20;95.80
46720;DHT22;32452;51.382;-0.002;2022-08-18T00:13:46;20.20;95.90
46720;DHT22;32452;51.382;-0.002;2022-08-18T00:16:31;20.20;95.80
46720;DHT22;32452;51.382;-0.002;2022-08-18T00:19:17;20.30;95.90
46720;DHT22;32452;51.382;-0.002;2022-08-18T00:22:03;20.20;95.80
46720;DHT22;32452;51.382;-0.002;2022-08-18T00:24:51;20.20;95.90
46720;DHT22;32452;51.382;-0.002;2022-08-18T00:27:37;20.20;95.90
46720;DHT22;32452;51.382;-0.002;2022-08-18T00:30:25;20.20;95.90
46720;DHT22;32452;51.382;-0.002;2022-08-18T00:33:10;20.20;95.80
46720;DHT22;32452;51.382;-0.002;2022-08-18T00:35:57;20.20;95.80
46720;DHT22;32452;51.382;-0.002;2022-08-18T00:38:43;20.20;95.80
46720;DHT22;32452;51.382;-0.002;2022-08-18T00:41:28;20.20;95.90
46720;DHT22;32452;51.382;-0.002;2022-08-18T00:44:14;20.20;95.80
46720;DHT22;32452;51.382;-0.002;2022-08-18T00:47:00;20.20;95.80
46720;DHT22;32452;51.382;-0.002;2022-08-18T00:49:50;20.20;95.70
46720;DHT22;32452;51.382;-0.002;2022-08-18T00:52:37;20.10;95.70
46720;DHT22;32452;51.382;-0.002;2022-08-18T00:55:24;20.10;95.60
46720;DHT22;32452;51.382;-0.002;2022-08-18T00:58:27;20.10;95.60
46720;DHT22;32452;51.382;-0.002;2022-08-18T01:01:15;20.10;95.60
46720;DHT22;32452;51.382;-0.002;2022-08-18T01:04:08;20.00;95.50
46720;DHT22;32452;51.382;-0.002;2022-08-18T01:07:04;20.00;95.50
46720;DHT22;32452;51.382;-0.002;2022-08-18T01:09:52;20.00;95.60
46720;DHT22;32452;51.382;-0.002;2022-08-18T01:12:37;20.00;95.60
46720;DHT22;32452;51.382;-0.002;2022-08-18T01:15:30;20.00;95.60
46720;DHT22;32452;51.382;-0.002;2022-08-18T01:18:17;19.90;95.60
46720;DHT22;32452;51.382;-0.002;2022-08-18T01:21:24;19.90;95.60
46720;DHT22;32452;51.382;-0.002;2022-08-18T01:24:33;20.00;95.60
46720;DHT22;32452;51.382;-0.002;2022-08-18T01:27:38;19.90;95.60
46720;DHT22;32452;51.382;-0.002;2022-08-18T01:30:26;19.90;95.60
46720;DHT22;32452;51.382;-0.002;2022-08-18T01:33:11;19.90;95.70
46720;DHT22;32452;51.382;-0.002;2022-08-18T01:36:09;19.90;95.70
46720;DHT22;32452;51.382;-0.002;2022-08-18T01:38:56;19.90;95.70
46720;DHT22;32452;51.382;-0.002;2022-08-18T01:41:42;19.90;95.80
46720;DHT22;32452;51.382;-0.002;2022-08-18T01:44:27;19.80;95.80
46720;DHT22;32452;51.382;-0.002;2022-08-18T01:47:14;19.80;95.90
46720;DHT22;32452;51.382;-0.002;2022-08-18T01:50:01;19.70;95.90
46720;DHT22;32452;51.382;-0.002;2022-08-18T01:52:47;19.70;96.00
46720;DHT22;32452;51.382;-0.002;2022-08-18T01:55:35;19.60;96.10
46720;DHT22;32452;51.382;-0.002;2022-08-18T01:58:21;19.60;96.20
46720;DHT22;32452;51.382;-0.002;2022-08-18T02:01:16;19.50;96.20
46720;DHT22;32452;51.382;-0.002;2022-08-18T02:04:01;19.50;96.30
46720;DHT22;32452;51.382;-0.002;2022-08-18T02:07:10;19.50;96.50
46720;DHT22;32452;51.382;-0.002;2022-08-18T02:09:55;19.50;96.50
46720;DHT22;32452;51.382;-0.002;2022-08-18T02:12:43;19.50;96.50
46720;DHT22;32452;51.382;-0.002;2022-08-18T02:15:29;19.50;96.50
46720;DHT22;32452;51.382;-0.002;2022-08-18T02:18:17;19.60;96.60
46720;DHT22;32452;51.382;-0.002;2022-08-18T02:21:24;19.60;96.60
46720;DHT22;32452;51.382;-0.002;2022-08-18T02:24:09;19.70;96.60
46720;DHT22;32452;51.382;-0.002;2022-08-18T02:26:55;19.70;96.50
46720;DHT22;32452;51.382;-0.002;2022-08-18T02:29:40;19.70;96.50
46720;DHT22;32452;51.382;-0.002;2022-08-18T02:32:26;19.70;96.50
46720;DHT22;32452;51.382;-0.002;2022-08-18T02:35:14;19.70;96.50
46720;DHT22;32452;51.382;-0.002;2022-08-18T02:38:04;19.70;96.50
46720;DHT22;32452;51.382;-0.002;2022-08-18T02:40:58;19.70;96.50
46720;DHT22;32452;51.382;-0.002;2022-08-18T02:43:44;19.70;96.50
46720;DHT22;32452;51.382;-0.002;2022-08-18T02:46:32;19.70;96.40
46720;DHT22;32452;51.382;-0.002;2022-08-18T02:49:17;19.70;96.40
46720;DHT22;32452;51.382;-0.002;2022-08-18T02:52:04;19.70;96.40
46720;DHT22;32452;51.382;-0.002;2022-08-18T02:54:50;19.70;96.40
46720;DHT22;32452;51.382;-0.002;2022-08-18T02:57:39;19.70;96.40
46720;DHT22;32452;51.382;-0.002;2022-08-18T03:00:25;19.70;96.40
46720;DHT22;32452;51.382;-0.002;2022-08-18T03:03:11;19.70;96.40
46720;DHT22;32452;51.382;-0.002;2022-08-18T03:05:57;19.70;96.40
46720;DHT22;32452;51.382;-0.002;2022-08-18T03:08:43;19.70;96.40
46720;DHT22;32452;51.382;-0.002;2022-08-18T03:11:33;19.70;96.40
46720;DHT22;32452;51.382;-0.002;2022-08-18T03:14:19;19.70;96.40
46720;DHT22;32452;51.382;-0.002;2022-08-18T03:17:06;19.70;96.40
46720;DHT22;32452;51.382;-0.002;2022-08-18T03:19:53;19.70;96.40
46720;DHT22;32452;51.382;-0.002;2022-08-18T03:22:41;19.70;96.40
46720;DHT22;32452;51.382;-0.002;2022-08-18T03:25:27;19.70;96.40
46720;DHT22;32452;51.382;-0.002;2022-08-18T03:28:14;19.70;96.40
46720;DHT22;32452;51.382;-0.002;2022-08-18T03:31:00;19.70;96.40
46720;DHT22;32452;51.382;-0.002;2022-08-18T03:33:46;19.70;96.40
46720;DHT22;32452;51.382;-0.002;2022-08-18T03:36:33;19.80;96.50
46720;DHT22;32452;51.382;-0.002;2022-08-18T03:39:19;19.80;96.50
46720;DHT22;32452;51.382;-0.002;2022-08-18T03:42:08;19.80;96.50
46720;DHT22;32452;51.382;-0.002;2022-08-18T03:44:54;19.70;96.40
46720;DHT22;32452;51.382;-0.002;2022-08-18T03:47:39;19.70;96.40
46720;DHT22;32452;51.382;-0.002;2022-08-18T03:50:25;19.70;96.50
46720;DHT22;32452;51.382;-0.002;2022-08-18T03:53:11;19.70;96.50
46720;DHT22;32452;51.382;-0.002;2022-08-18T03:55:57;19.80;96.50
46720;DHT22;32452;51.382;-0.002;2022-08-18T03:58:48;19.80;96.50
46720;DHT22;32452;51.382;-0.002;2022-08-18T04:01:39;19.80;96.60
46720;DHT22;32452;51.382;-0.002;2022-08-18T04:04:27;19.80;96.50
46720;DHT22;32452;51.382;-0.002;2022-08-18T04:07:12;19.80;96.50
46720;DHT22;32452;51.382;-0.002;2022-08-18T04:10:01;19.70;96.50
46720;DHT22;32452;51.382;-0.002;2022-08-18T04:12:47;19.70;96.50
46720;DHT22;32452;51.382;-0.002;2022-08-18T04:15:32;19.70;96.60
46720;DHT22;32452;51.382;-0.002;2022-08-18T04:18:18;19.70;96.60
46720;DHT22;32452;51.382;-0.002;2022-08-18T04:21:05;19.70;96.60
46720;DHT22;32452;51.382;-0.002;2022-08-18T04:23:52;19.60;96.60
46720;DHT22;32452;51.382;-0.002;2022-08-18T04:26:40;19.70;96.70
46720;DHT22;32452;51.382;-0.002;2022-08-18T04:29:27;19.60;96.80
46720;DHT22;32452;51.382;-0.002;2022-08-18T04:32:13;19.60;96.90
46720;DHT22;32452;51.382;-0.002;2022-08-18T04:34:58;19.60;96.90
46720;DHT22;32452;51.382;-0.002;2022-08-18T04:37:47;19.70;97.00
46720;DHT22;32452;51.382;-0.002;2022-08-18T04:40:33;19.60;97.00
46720;DHT22;32452;51.382;-0.002;2022-08-18T04:43:18;19.60;97.10
46720;DHT22;32452;51.382;-0.002;2022-08-18T04:46:04;19.60;97.10
46720;DHT22;32452;51.382;-0.002;2022-08-18T04:48:51;19.60;97.20
46720;DHT22;32452;51.382;-0.002;2022-08-18T04:51:43;19.60;97.30
46720;DHT22;32452;51.382;-0.002;2022-08-18T04:54:49;19.60;97.40
46720;DHT22;32452;51.382;-0.002;2022-08-18T04:57:34;19.60;97.40
46720;DHT22;32452;51.382;-0.002;2022-08-18T05:00:20;19.60;97.50
46720;DHT22;32452;51.382;-0.002;2022-08-18T05:03:05;19.60;97.50
46720;DHT22;32452;51.382;-0.002;2022-08-18T05:05:56;19.60;97.50
46720;DHT22;32452;51.382;-0.002;2022-08-18T05:08:44;19.50;97.60
46720;DHT22;32452;51.382;-0.002;2022-08-18T05:11:33;19.50;97.60
46720;DHT22;32452;51.382;-0.002;2022-08-18T05:14:18;19.50;97.80
46720;DHT22;32452;51.382;-0.002;2022-08-18T05:17:05;19.40;97.80
46720;DHT22;32452;51.382;-0.002;2022-08-18T05:19:50;19.40;98.00
46720;DHT22;32452;51.382;-0.002;2022-08-18T05:22:41;19.40;98.10
46720;DHT22;32452;51.382;-0.002;2022-08-18T05:25:27;19.40;98.10
46720;DHT22;32452;51.382;-0.002;2022-08-18T05:28:14;19.40;98.10
46720;DHT22;32452;51.382;-0.002;2022-08-18T05:31:06;19.40;98.10
46720;DHT22;32452;51.382;-0.002;2022-08-18T05:33:57;19.40;98.20
46720;DHT22;32452;51.382;-0.002;2022-08-18T05:39:44;19.50;98.10
46720;DHT22;32452;51.382;-0.002;2022-08-18T05:42:35;19.50;98.10
46720;DHT22;32452;51.382;-0.002;2022-08-18T05:45:22;19.50;98.10
46720;DHT22;32452;51.382;-0.002;2022-08-18T05:48:08;19.50;98.10
46720;DHT22;32452;51.382;-0.002;2022-08-18T05:50:55;19.50;98.10
46720;DHT22;32452;51.382;-0.002;2022-08-18T05:53:42;19.50;98.10
46720;DHT22;32452;51.382;-0.002;2022-08-18T05:56:49;19.60;98.10
46720;DHT22;32452;51.382;-0.002;2022-08-18T05:59:38;19.60;98.10
46720;DHT22;32452;51.382;-0.002;2022-08-18T06:05:27;19.60;97.90
46720;DHT22;32452;51.382;-0.002;2022-08-18T06:08:13;19.60;98.00
46720;DHT22;32452;51.382;-0.002;2022-08-18T06:10:59;19.60;97.90
46720;DHT22;32452;51.382;-0.002;2022-08-18T06:13:45;19.60;97.80
46720;DHT22;32452;51.382;-0.002;2022-08-18T06:16:50;19.70;97.60
46720;DHT22;32452;51.382;-0.002;2022-08-18T06:20:06;19.70;97.60
46720;DHT22;32452;51.382;-0.002;2022-08-18T06:26:10;19.80;97.30
46720;DHT22;32452;51.382;-0.002;2022-08-18T06:32:20;19.80;97.30
46720;DHT22;32452;51.382;-0.002;2022-08-18T06:35:15;19.90;97.30
46720;DHT22;32452;51.382;-0.002;2022-08-18T06:41:42;20.00;97.00
46720;DHT22;32452;51.382;-0.002;2022-08-18T06:44:35;20.10;96.80
46720;DHT22;32452;51.382;-0.002;2022-08-18T06:47:37;20.10;96.60
46720;DHT22;32452;51.382;-0.002;2022-08-18T06:50:33;20.20;96.40
46720;DHT22;32452;51.382;-0.002;2022-08-18T06:53:22;20.20;96.30
46720;DHT22;32452;51.382;-0.002;2022-08-18T06:59:29;20.30;96.10
46720;DHT22;32452;51.382;-0.002;2022-08-18T07:05:34;20.40;96.00
46720;DHT22;32452;51.382;-0.002;2022-08-18T07:08:39;20.40;96.00
46720;DHT22;32452;51.382;-0.002;2022-08-18T07:11:31;20.40;95.90
46720;DHT22;32452;51.382;-0.002;2022-08-18T07:14:22;20.40;95.90
46720;DHT22;32452;51.382;-0.002;2022-08-18T07:17:13;20.50;95.90
46720;DHT22;32452;51.382;-0.002;2022-08-18T07:20:08;20.50;95.90
46720;DHT22;32452;51.382;-0.002;2022-08-18T07:23:00;20.50;95.70
46720;DHT22;32452;51.382;-0.002;2022-08-18T07:28:51;20.70;95.60
46720;DHT22;32452;51.382;-0.002;2022-08-18T07:31:48;20.70;95.50
46720;DHT22;32452;51.382;-0.002;2022-08-18T07:34:46;21.00;95.30
46720;DHT22;32452;51.382;-0.002;2022-08-18T07:37:50;21.30;94.90
46720;DHT22;32452;51.382;-0.002;2022-08-18T07:40:42;21.70;94.30
46720;DHT22;32452;51.382;-0.002;2022-08-18T07:43:45;22.00;93.70
46720;DHT22;32452;51.382;-0.002;2022-08-18T07:46:41;22.30;93.10
46720;DHT22;32452;51.382;-0.002;2022-08-18T07:49:33;22.30;92.70
46720;DHT22;32452;51.382;-0.002;2022-08-18T07:52:46;22.40;92.40
46720;DHT22;32452;51.382;-0.002;2022-08-18T07:55:34;22.50;92.00
46720;DHT22;32452;51.382;-0.002;2022-08-18T07:58:53;22.60;91.80
46720;DHT22;32452;51.382;-0.002;2022-08-18T08:01:49;22.60;91.30
46720;DHT22;32452;51.382;-0.002;2022-08-18T08:08:18;22.60;91.10
46720;DHT22;32452;51.382;-0.002;2022-08-18T08:17:30;22.20;91.00
46720;DHT22;32452;51.382;-0.002;2022-08-18T08:20:20;22.20;91.20
46720;DHT22;32452;51.382;-0.002;2022-08-18T08:23:47;22.30;91.20
46720;DHT22;32452;51.382;-0.002;2022-08-18T08:26:58;22.50;90.80
46720;DHT22;32452;51.382;-0.002;2022-08-18T08:30:06;22.80;90.40
46720;DHT22;32452;51.382;-0.002;2022-08-18T08:33:21;23.10;89.80
46720;DHT22;32452;51.382;-0.002;2022-08-18T08:36:20;23.40;88.20
46720;DHT22;32452;51.382;-0.002;2022-08-18T08:39:17;23.50;87.00
46720;DHT22;32452;51.382;-0.002;2022-08-18T08:42:22;23.60;85.50
46720;DHT22;32452;51.382;-0.002;2022-08-18T08:45:22;24.00;84.40
46720;DHT22;32452;51.382;-0.002;2022-08-18T08:48:16;24.60;85.40
46720;DHT22;32452;51.382;-0.002;2022-08-18T09:00:52;28.40;68.00
46720;DHT22;32452;51.382;-0.002;2022-08-18T09:03:48;28.80;64.90
46720;DHT22;32452;51.382;-0.002;2022-08-18T09:15:36;30.60;56.50
46720;DHT22;32452;51.382;-0.002;2022-08-18T09:24:59;31.10;52.60
46720;DHT22;32452;51.382;-0.002;2022-08-18T09:27:45;30.90;53.10
46720;DHT22;32452;51.382;-0.002;2022-08-18T09:37:16;30.50;53.00
46720;DHT22;32452;51.382;-0.002;2022-08-18T09:40:15;29.70;53.80
46720;DHT22;32452;51.382;-0.002;2022-08-18T09:47:02;28.10;56.40
46720;DHT22;32452;51.382;-0.002;2022-08-18T09:49:52;27.60;57.40
46720;DHT22;32452;51.382;-0.002;2022-08-18T09:58:46;28.30;55.90
46720;DHT22;32452;51.382;-0.002;2022-08-18T10:14:29;26.40;57.80
46720;DHT22;32452;51.382;-0.002;2022-08-18T10:29:51;25.20;60.50
46720;DHT22;32452;51.382;-0.002;2022-08-18T10:32:40;25.10;60.80
46720;DHT22;32452;51.382;-0.002;2022-08-18T10:38:26;25.00;61.60
46720;DHT22;32452;51.382;-0.002;2022-08-18T10:41:28;25.00;62.00
46720;DHT22;32452;51.382;-0.002;2022-08-18T10:44:16;25.10;61.90
46720;DHT22;32452;51.382;-0.002;2022-08-18T10:47:28;25.30;62.10
46720;DHT22;32452;51.382;-0.002;2022-08-18T10:50:22;25.40;61.60
46720;DHT22;32452;51.382;-0.002;2022-08-18T10:53:34;25.50;61.60
46720;DHT22;32452;51.382;-0.002;2022-08-18T10:56:32;25.40;61.20
46720;DHT22;32452;51.382;-0.002;2022-08-18T11:02:38;25.60;60.50
46720;DHT22;32452;51.382;-0.002;2022-08-18T11:05:27;25.70;60.10
46720;DHT22;32452;51.382;-0.002;2022-08-18T11:08:18;25.80;60.30
46720;DHT22;32452;51.382;-0.002;2022-08-18T11:11:07;26.10;60.40
46720;DHT22;32452;51.382;-0.002;2022-08-18T11:20:29;27.10;58.20
46720;DHT22;32452;51.382;-0.002;2022-08-18T11:23:19;27.30;57.20
46720;DHT22;32452;51.382;-0.002;2022-08-18T11:26:16;27.70;56.20
46720;DHT22;32452;51.382;-0.002;2022-08-18T11:29:37;28.20;55.40
46720;DHT22;32452;51.382;-0.002;2022-08-18T11:32:33;28.80;54.30
46720;DHT22;32452;51.382;-0.002;2022-08-18T11:35:23;29.30;53.20
46720;DHT22;32452;51.382;-0.002;2022-08-18T11:38:13;29.90;51.40
46720;DHT22;32452;51.382;-0.002;2022-08-18T11:41:25;30.40;50.10
46720;DHT22;32452;51.382;-0.002;2022-08-18T11:44:31;30.70;49.20
46720;DHT22;32452;51.382;-0.002;2022-08-18T11:47:20;31.00;48.00
46720;DHT22;32452;51.382;-0.002;2022-08-18T11:50:12;30.80;47.00
46720;DHT22;32452;51.382;-0.002;2022-08-18T11:53:21;30.50;47.70
46720;DHT22;32452;51.382;-0.002;2022-08-18T11:59:05;29.50;48.90
46720;DHT22;32452;51.382;-0.002;2022-08-18T12:02:16;29.50;49.70
46720;DHT22;32452;51.382;-0.002;2022-08-18T12:05:02;29.80;49.00
46720;DHT22;32452;51.382;-0.002;2022-08-18T12:07:54;30.10;48.70
46720;DHT22;32452;51.382;-0.002;2022-08-18T12:10:42;30.30;47.60
46720;DHT22;32452;51.382;-0.002;2022-08-18T12:13:28;30.10;48.10
46720;DHT22;32452;51.382;-0.002;2022-08-18T12:16:24;29.90;47.90
46720;DHT22;32452;51.382;-0.002;2022-08-18T12:19:15;29.80;48.10
46720;DHT22;32452;51.382;-0.002;2022-08-18T12:22:14;29.90;48.40
46720;DHT22;32452;51.382;-0.002;2022-08-18T12:25:03;30.10;48.00
46720;DHT22;32452;51.382;-0.002;2022-08-18T12:27:56;30.00;47.80
46720;DHT22;32452;51.382;-0.002;2022-08-18T12:30:42;29.80;47.90
46720;DHT22;32452;51.382;-0.002;2022-08-18T12:33:28;29.80;48.60
46720;DHT22;32452;51.382;-0.002;2022-08-18T12:36:33;29.60;48.20
46720;DHT22;32452;51.382;-0.002;2022-08-18T12:39:22;29.20;48.60
46720;DHT22;32452;51.382;-0.002;2022-08-18T12:42:09;28.90;49.10
46720;DHT22;32452;51.382;-0.002;2022-08-18T12:44:55;28.70;49.60
46720;DHT22;32452;51.382;-0.002;2022-08-18T12:47:42;28.60;50.10
46720;DHT22;32452;51.382;-0.002;2022-08-18T12:50:27;28.90;49.80
46720;DHT22;32452;51.382;-0.002;2022-08-18T12:53:33;28.90;49.70
46720;DHT22;32452;51.382;-0.002;2022-08-18T12:56:39;29.10;49.80
46720;DHT22;32452;51.382;-0.002;2022-08-18T12:59:25;29.20;49.30
46720;DHT22;32452;51.382;-0.002;2022-08-18T13:02:16;29.30;49.00
46720;DHT22;32452;51.382;-0.002;2022-08-18T13:05:06;29.10;48.80
46720;DHT22;32452;51.382;-0.002;2022-08-18T13:07:51;29.00;49.20
46720;DHT22;32452;51.382;-0.002;2022-08-18T13:10:37;28.80;49.40
46720;DHT22;32452;51.382;-0.002;2022-08-18T13:13:31;28.70;49.70
46720;DHT22;32452;51.382;-0.002;2022-08-18T13:16:17;28.60;49.80
46720;DHT22;32452;51.382;-0.002;2022-08-18T13:19:22;28.60;49.90
46720;DHT22;32452;51.382;-0.002;2022-08-18T13:22:16;28.70;49.90
46720;DHT22;32452;51.382;-0.002;2022-08-18T13:25:03;28.90;49.50
46720;DHT22;32452;51.382;-0.002;2022-08-18T13:27:51;29.10;49.10
46720;DHT22;32452;51.382;-0.002;2022-08-18T13:30:36;28.90;48.90
46720;DHT22;32452;51.382;-0.002;2022-08-18T13:33:22;28.80;49.00
46720;DHT22;32452;51.382;-0.002;2022-08-18T13:36:29;28.60;48.80
46720;DHT22;32452;51.382;-0.002;2022-08-18T13:39:30;28.40;49.00
46720;DHT22;32452;51.382;-0.002;2022-08-18T13:42:19;28.30;49.10
46720;DHT22;32452;51.382;-0.002;2022-08-18T13:45:18;28.30;49.20
46720;DHT22;32452;51.382;-0.002;2022-08-18T13:48:10;28.40;48.90
46720;DHT22;32452;51.382;-0.002;2022-08-18T13:50:58;28.40;48.60
46720;DHT22;32452;51.382;-0.002;2022-08-18T13:53:45;28.50;48.20
46720;DHT22;32452;51.382;-0.002;2022-08-18T13:56:50;28.30;48.40
46720;DHT22;32452;51.382;-0.002;2022-08-18T13:59:37;28.30;48.80
46720;DHT22;32452;51.382;-0.002;2022-08-18T14:02:30;28.40;49.10
46720;DHT22;32452;51.382;-0.002;2022-08-18T14:05:17;28.40;48.70
46720;DHT22;32452;51.382;-0.002;2022-08-18T14:08:05;28.40;48.70
46720;DHT22;32452;51.382;-0.002;2022-08-18T14:10:53;28.30;49.00
46720;DHT22;32452;51.382;-0.002;2022-08-18T14:13:40;28.30;49.40
46720;DHT22;32452;51.382;-0.002;2022-08-18T14:16:29;28.30;49.20
46720;DHT22;32452;51.382;-0.002;2022-08-18T14:19:15;28.40;49.30
46720;DHT22;32452;51.382;-0.002;2022-08-18T14:22:18;28.20;49.20
46720;DHT22;32452;51.382;-0.002;2022-08-18T14:25:23;28.20;49.50
46720;DHT22;32452;51.382;-0.002;2022-08-18T14:28:29;28.10;49.70
46720;DHT22;32452;51.382;-0.002;2022-08-18T14:31:15;28.30;49.80
46720;DHT22;32452;51.382;-0.002;2022-08-18T14:34:05;28.40;49.60
46720;DHT22;32452;51.382;-0.002;2022-08-18T14:36:50;28.50;49.20
46720;DHT22;32452;51.382;-0.002;2022-08-18T14:39:37;28.50;48.90
46720;DHT22;32452;51.382;-0.002;2022-08-18T14:42:24;28.40;48.90
46720;DHT22;32452;51.382;-0.002;2022-08-18T14:45:26;28.30;48.90
46720;DHT22;32452;51.382;-0.002;2022-08-18T14:48:20;28.20;49.20
46720;DHT22;32452;51.382;-0.002;2022-08-18T14:51:09;28.10;49.60
46720;DHT22;32452;51.382;-0.002;2022-08-18T14:53:55;28.00;50.00
46720;DHT22;32452;51.382;-0.002;2022-08-18T14:56:40;28.00;50.30
46720;DHT22;32452;51.382;-0.002;2022-08-18T14:59:28;28.10;50.20
46720;DHT22;32452;51.382;-0.002;2022-08-18T15:02:18;28.10;50.10
46720;DHT22;32452;51.382;-0.002;2022-08-18T15:05:08;28.10;50.10
46720;DHT22;32452;51.382;-0.002;2022-08-18T15:08:08;28.20;50.20
46720;DHT22;32452;51.382;-0.002;2022-08-18T15:10:56;28.20;49.30
46720;DHT22;32452;51.382;-0.002;2022-08-18T15:13:43;28.10;49.40
46720;DHT22;32452;51.382;-0.002;2022-08-18T15:16:30;27.90;49.60
46720;DHT22;32452;51.382;-0.002;2022-08-18T15:19:23;27.80;49.90
46720;DHT22;32452;51.382;-0.002;2022-08-18T15:22:29;27.70;50.30
46720;DHT22;32452;51.382;-0.002;2022-08-18T15:25:33;27.60;50.60
46720;DHT22;32452;51.382;-0.002;2022-08-18T15:28:29;27.50;50.80
46720;DHT22;32452;51.382;-0.002;2022-08-18T15:31:14;27.50;50.80
46720;DHT22;32452;51.382;-0.002;2022-08-18T15:34:02;27.40;50.80
46720;DHT22;32452;51.382;-0.002;2022-08-18T15:36:48;27.40;50.90
46720;DHT22;32452;51.382;-0.002;2022-08-18T15:39:33;27.30;51.10
46720;DHT22;32452;51.382;-0.002;2022-08-18T15:42:19;27.30;51.50
46720;DHT22;32452;51.382;-0.002;2022-08-18T15:45:05;27.20;52.20
46720;DHT22;32452;51.382;-0.002;2022-08-18T15:47:57;27.20;53.00
46720;DHT22;32452;51.382;-0.002;2022-08-18T15:50:44;27.20;53.70
46720;DHT22;32452;51.382;-0.002;2022-08-18T15:53:35;27.20;54.10
46720;DHT22;32452;51.382;-0.002;2022-08-18T15:56:24;27.20;54.10
46720;DHT22;32452;51.382;-0.002;2022-08-18T15:59:10;27.00;53.00
46720;DHT22;32452;51.382;-0.002;2022-08-18T16:01:56;27.00;52.20
46720;DHT22;32452;51.382;-0.002;2022-08-18T16:04:43;26.90;51.90
46720;DHT22;32452;51.382;-0.002;2022-08-18T16:07:29;26.90;51.90
46720;DHT22;32452;51.382;-0.002;2022-08-18T16:10:29;26.80;51.80
46720;DHT22;32452;51.382;-0.002;2022-08-18T16:13:16;26.80;51.30
46720;DHT22;32452;51.382;-0.002;2022-08-18T16:16:15;26.80;52.00
46720;DHT22;32452;51.382;-0.002;2022-08-18T16:19:20;26.60;53.60
46720;DHT22;32452;51.382;-0.002;2022-08-18T16:22:10;26.50;54.70
46720;DHT22;32452;51.382;-0.002;2022-08-18T16:24:55;26.40;55.50
46720;DHT22;32452;51.382;-0.002;2022-08-18T16:27:42;26.30;56.00
46720;DHT22;32452;51.382;-0.002;2022-08-18T16:30:28;26.20;56.40
46720;DHT22;32452;51.382;-0.002;2022-08-18T16:33:14;26.10;56.80
46720;DHT22;32452;51.382;-0.002;2022-08-18T16:36:04;26.00;57.00
46720;DHT22;32452;51.382;-0.002;2022-08-18T16:38:52;26.00;57.30
46720;DHT22;32452;51.382;-0.002;2022-08-18T16:41:40;25.90;57.30
46720;DHT22;32452;51.382;-0.002;2022-08-18T16:44:27;25.90;57.50
46720;DHT22;32452;51.382;-0.002;2022-08-18T16:47:14;25.80;57.60
46720;DHT22;32452;51.382;-0.002;2022-08-18T16:50:02;25.80;57.60
46720;DHT22;32452;51.382;-0.002;2022-08-18T16:52:49;25.70;57.60
46720;DHT22;32452;51.382;-0.002;2022-08-18T16:55:35;25.60;57.50
46720;DHT22;32452;51.382;-0.002;2022-08-18T16:58:22;25.60;57.60
46720;DHT22;32452;51.382;-0.002;2022-08-18T17:01:26;25.70;57.60
46720;DHT22;32452;51.382;-0.002;2022-08-18T17:04:33;25.70;57.50
46720;DHT22;32452;51.382;-0.002;2022-08-18T17:07:19;25.70;57.20
46720;DHT22;32452;51.382;-0.002;2022-08-18T17:10:05;25.70;57.10
46720;DHT22;32452;51.382;-0.002;2022-08-18T17:12:51;25.80;55.90
46720;DHT22;32452;51.382;-0.002;2022-08-18T17:15:36;25.80;55.90
46720;DHT22;32452;51.382;-0.002;2022-08-18T17:18:22;25.90;55.30
46720;DHT22;32452;51.382;-0.002;2022-08-18T17:21:12;25.90;56.20
46720;DHT22;32452;51.382;-0.002;2022-08-18T17:23:59;25.90;55.60
46720;DHT22;32452;51.382;-0.002;2022-08-18T17:27:04;25.90;55.70
46720;DHT22;32452;51.382;-0.002;2022-08-18T17:30:16;25.80;55.80
46720;DHT22;32452;51.382;-0.002;2022-08-18T17:33:09;25.70;56.00
46720;DHT22;32452;51.382;-0.002;2022-08-18T17:36:00;25.70;56.00
46720;DHT22;32452;51.382;-0.002;2022-08-18T17:39:01;25.60;56.20
46720;DHT22;32452;51.382;-0.002;2022-08-18T17:41:47;25.50;56.30
46720;DHT22;32452;51.382;-0.002;2022-08-18T17:44:59;25.40;56.40
46720;DHT22;32452;51.382;-0.002;2022-08-18T17:48:29;25.20;56.60
46720;DHT22;32452;51.382;-0.002;2022-08-18T17:51:18;25.10;57.00
46720;DHT22;32452;51.382;-0.002;2022-08-18T17:54:25;25.00;57.30
46720;DHT22;32452;51.382;-0.002;2022-08-18T17:57:20;24.90;57.80
46720;DHT22;32452;51.382;-0.002;2022-08-18T18:00:13;24.80;58.30
46720;DHT22;32452;51.382;-0.002;2022-08-18T18:02:59;24.60;58.80
46720;DHT22;32452;51.382;-0.002;2022-08-18T18:05:49;24.60;59.20
46720;DHT22;32452;51.382;-0.002;2022-08-18T18:08:57;24.50;59.60
46720;DHT22;32452;51.382;-0.002;2022-08-18T18:11:43;24.40;59.90
46720;DHT22;32452;51.382;-0.002;2022-08-18T18:14:35;24.40;60.10
46720;DHT22;32452;51.382;-0.002;2022-08-18T18:17:26;24.40;60.50
46720;DHT22;32452;51.382;-0.002;2022-08-18T18:20:32;24.30;60.70
46720;DHT22;32452;51.382;-0.002;2022-08-18T18:23:27;24.20;61.00
46720;DHT22;32452;51.382;-0.002;2022-08-18T18:29:28;24.10;61.30
46720;DHT22;32452;51.382;-0.002;2022-08-18T18:35:18;24.00;61.40
46720;DHT22;32452;51.382;-0.002;2022-08-18T18:38:41;24.00;61.60
46720;DHT22;32452;51.382;-0.002;2022-08-18T18:41:33;23.90;61.60
46720;DHT22;32452;51.382;-0.002;2022-08-18T18:44:29;23.90;61.80
46720;DHT22;32452;51.382;-0.002;2022-08-18T18:50:42;23.80;62.10
46720;DHT22;32452;51.382;-0.002;2022-08-18T18:56:58;23.70;62.30
46720;DHT22;32452;51.382;-0.002;2022-08-18T18:59:56;23.60;62.50
46720;DHT22;32452;51.382;-0.002;2022-08-18T19:03:01;23.60;62.70
46720;DHT22;32452;51.382;-0.002;2022-08-18T19:12:48;23.40;63.20
46720;DHT22;32452;51.382;-0.002;2022-08-18T19:15:13;23.40;63.30
46720;DHT22;32452;51.382;-0.002;2022-08-18T19:21:12;23.20;63.50
46720;DHT22;32452;51.382;-0.002;2022-08-18T19:24:21;23.20;63.60
46720;DHT22;32452;51.382;-0.002;2022-08-18T19:27:15;23.10;63.50
46720;DHT22;32452;51.382;-0.002;2022-08-18T19:30:12;23.10;63.60
46720;DHT22;32452;51.382;-0.002;2022-08-18T19:33:01;23.00;63.50
46720;DHT22;32452;51.382;-0.002;2022-08-18T19:35:56;23.00;63.50
46720;DHT22;32452;51.382;-0.002;2022-08-18T19:39:00;22.90;63.30
46720;DHT22;32452;51.382;-0.002;2022-08-18T19:44:46;22.80;63.20
46720;DHT22;32452;51.382;-0.002;2022-08-18T19:48:01;22.70;63.10
46720;DHT22;32452;51.382;-0.002;2022-08-18T19:50:53;22.60;63.10
46720;DHT22;32452;51.382;-0.002;2022-08-18T19:53:56;22.60;63.30
46720;DHT22;32452;51.382;-0.002;2022-08-18T19:57:19;22.50;63.30
46720;DHT22;32452;51.382;-0.002;2022-08-18T20:00:21;22.40;63.50
46720;DHT22;32452;51.382;-0.002;2022-08-18T20:15:19;22.20;63.70
46720;DHT22;32452;51.382;-0.002;2022-08-18T20:18:20;22.10;63.80
46720;DHT22;32452;51.382;-0.002;2022-08-18T20:24:05;22.00;64.10
46720;DHT22;32452;51.382;-0.002;2022-08-18T20:26:51;22.00;64.20
46720;DHT22;32452;51.382;-0.002;2022-08-18T20:32:32;21.90;64.60